Time;durP1;ratioP1;P1;durP2;ratioP2;P2;SDS_P1;SDS_P2;PMS_P1;PMS_P2;Temp;Humidity;BMP_temperature;BMP_pressure;BME280_temperature;BME280_humidity;BME280_pressure;Samples;Min_cycle;Max_cycle;Signal;HPM_P1;HPM_P2
2022/01/29 06:02:13;;;;;;;4.95;2.25;;;3.90;96.90;;;;;;5065915;23;20091;-81
2022/01/29 06:04:40;;;;;;;5.97;2.15;;;3.90;96.90;;;;;;4903827;29;20108;-80
2022/01/29 06:07:07;;;;;;;4.30;1.95;;;3.90;97.10;;;;;;4904003;29;20140;-82
2022/01/29 06:09:34;;;;;;;4.05;1.92;;;3.90;97.10;;;;;;4903839;29;20091;-80
2022/01/29 06:12:01;;;;;;;4.88;1.88;;;3.90;97.20;;;;;;4904347;29;20561;-81
2022/01/29 06:14:28;;;;;;;5.00;2.00;;;4.00;97.20;;;;;;4899298;29;20077;-80
2022/01/29 06:16:55;;;;;;;3.75;1.80;;;4.00;97.10;;;;;;4893187;29;20080;-79
2022/01/29 06:19:24;;;;;;;5.47;2.13;;;4.10;97.10;;;;;;4887787;29;20069;-80
2022/01/29 06:21:51;;;;;;;7.47;2.15;;;4.10;97.00;;;;;;4902458;29;20055;-81
2022/01/29 06:24:18;;;;;;;4.53;1.90;;;4.20;97.10;;;;;;4902404;29;20053;-79
2022/01/29 06:26:45;;;;;;;4.60;1.92;;;4.20;97.00;;;;;;4904207;29;20140;-83
2022/01/29 06:29:12;;;;;;;5.28;2.08;;;4.10;97.10;;;;;;4888281;29;20112;-81
2022/01/29 06:31:39;;;;;;;4.97;1.83;;;4.10;97.00;;;;;;4902609;29;20103;-85
2022/01/29 06:34:06;;;;;;;4.75;2.05;;;4.20;96.90;;;;;;4889154;29;20112;-80
2022/01/29 06:36:34;;;;;;;4.13;1.80;;;4.20;96.80;;;;;;4882687;29;20482;-82
2022/01/29 06:39:01;;;;;;;5.82;1.90;;;4.20;96.60;;;;;;4891576;29;20600;-81
2022/01/29 06:41:28;;;;;;;3.95;1.90;;;4.30;96.50;;;;;;4897856;29;20052;-85
2022/01/29 06:43:55;;;;;;;4.78;1.90;;;4.30;96.40;;;;;;4898087;29;20076;-80
2022/01/29 06:46:22;;;;;;;4.50;2.08;;;4.30;96.40;;;;;;4906275;29;20578;-78
2022/01/29 06:48:49;;;;;;;6.00;1.65;;;4.30;96.30;;;;;;4903461;29;20068;-79
2022/01/29 06:51:17;;;;;;;4.70;2.00;;;4.30;96.30;;;;;;4893302;29;20139;-82
2022/01/29 06:53:46;;;;;;;4.03;1.75;;;4.30;96.20;;;;;;4898029;29;20403;-82
2022/01/29 06:56:13;;;;;;;4.65;1.90;;;4.30;96.20;;;;;;4896633;29;20456;-79
2022/01/29 06:58:40;;;;;;;3.92;1.80;;;4.30;96.10;;;;;;4882434;29;20079;-80
2022/01/29 07:01:07;;;;;;;3.63;1.67;;;4.30;96.00;;;;;;4896985;29;20132;-78
2022/01/29 07:03:34;;;;;;;4.30;1.95;;;4.30;96.10;;;;;;4898694;29;20055;-79
2022/01/29 07:06:03;;;;;;;3.90;1.98;;;4.30;95.90;;;;;;4890285;29;20056;-81
2022/01/29 07:08:30;;;;;;;4.93;2.15;;;4.40;96.00;;;;;;4886582;29;20132;-79
2022/01/29 07:10:59;;;;;;;4.25;2.10;;;4.40;96.00;;;;;;4890373;29;20079;-83
2022/01/29 07:13:26;;;;;;;5.65;2.20;;;4.40;95.90;;;;;;4899474;29;20056;-81
2022/01/29 07:15:53;;;;;;;5.55;2.10;;;4.40;95.80;;;;;;4889870;29;20123;-79
2022/01/29 07:18:20;;;;;;;6.32;2.40;;;4.40;95.90;;;;;;4896543;29;20048;-82
2022/01/29 07:20:48;;;;;;;4.80;2.25;;;4.40;95.90;;;;;;4886246;29;20473;-83
2022/01/29 07:23:18;;;;;;;5.13;2.13;;;4.40;95.90;;;;;;4881617;29;20105;-86
2022/01/29 07:25:45;;;;;;;4.25;2.03;;;4.50;95.90;;;;;;4892023;29;20084;-79
2022/01/29 07:28:15;;;;;;;5.80;1.80;;;4.50;95.90;;;;;;4898010;29;20135;-81
2022/01/29 07:30:42;;;;;;;5.18;1.90;;;4.40;95.90;;;;;;4891632;29;20407;-83
2022/01/29 07:33:09;;;;;;;4.63;1.88;;;4.50;96.00;;;;;;4892749;29;20040;-83
2022/01/29 07:35:36;;;;;;;4.50;2.15;;;4.50;96.10;;;;;;4885369;29;20140;-82
2022/01/29 07:38:03;;;;;;;5.35;2.42;;;4.50;96.20;;;;;;4891345;29;20074;-85
2022/01/29 07:40:30;;;;;;;4.40;2.40;;;4.50;96.00;;;;;;4891844;29;20112;-88
2022/01/29 07:42:57;;;;;;;5.75;2.38;;;4.50;96.10;;;;;;4896406;29;20067;-82
2022/01/29 07:45:26;;;;;;;5.18;2.45;;;4.50;96.10;;;;;;4898320;29;20049;-92
2022/01/29 07:47:53;;;;;;;4.88;2.45;;;4.50;96.20;;;;;;4886955;29;20049;-88
2022/01/29 07:50:53;;;;;;;5.28;2.60;;;4.50;96.20;;;;;;4896533;29;20072;-85
2022/01/29 07:53:35;;;;;;;6.60;2.40;;;4.50;96.30;;;;;;4870802;29;20060;-88
2022/01/29 07:56:15;;;;;;;4.85;2.42;;;4.40;96.40;;;;;;4890890;29;20053;-85
2022/01/29 08:01:55;;;;;;;6.15;2.70;;;4.40;96.40;;;;;;4882938;29;20049;-86
2022/01/29 08:04:45;;;;;;;5.82;2.38;;;4.40;96.50;;;;;;4885264;29;20071;-86
2022/01/29 08:07:22;;;;;;;5.88;2.63;;;4.40;96.50;;;;;;4897848;29;20053;-88
2022/01/29 08:10:00;;;;;;;4.90;2.47;;;4.40;96.50;;;;;;4887701;29;20048;-85
2022/01/29 08:12:34;;;;;;;6.07;2.40;;;4.40;96.50;;;;;;4899673;29;20454;-86
2022/01/29 08:15:04;;;;;;;5.85;2.53;;;4.40;96.60;;;;;;4900923;29;20410;-88
2022/01/29 08:24:24;;;;;;;4.35;2.22;;;4.40;96.50;;;;;;4860720;29;20057;-87
2022/01/29 08:26:51;;;;;;;6.63;2.67;;;4.50;96.50;;;;;;4901315;29;20091;-80
2022/01/29 08:29:18;;;;;;;5.40;2.10;;;4.50;96.50;;;;;;4901355;29;20080;-81
2022/01/29 08:31:45;;;;;;;5.72;2.33;;;4.50;96.40;;;;;;4900920;29;20136;-83
2022/01/29 08:34:14;;;;;;;4.80;2.38;;;4.50;96.30;;;;;;4892677;29;20139;-80
2022/01/29 08:36:41;;;;;;;4.35;2.13;;;4.50;96.30;;;;;;4892928;29;20045;-80
2022/01/29 08:39:08;;;;;;;4.93;2.40;;;4.60;96.20;;;;;;4898378;29;20048;-79
2022/01/29 08:41:35;;;;;;;5.60;2.15;;;4.60;96.20;;;;;;4899080;29;20136;-82
2022/01/29 08:44:02;;;;;;;6.60;2.20;;;4.60;96.10;;;;;;4900845;29;20172;-81
2022/01/29 08:46:29;;;;;;;5.38;2.10;;;4.60;96.00;;;;;;4887388;29;20044;-80
2022/01/29 08:48:56;;;;;;;5.03;2.30;;;4.70;96.00;;;;;;4894562;29;20494;-78
2022/01/29 08:51:25;;;;;;;6.13;2.05;;;4.70;96.00;;;;;;4883006;29;20059;-83
2022/01/29 08:53:52;;;;;;;5.55;2.15;;;4.70;95.80;;;;;;4886989;29;20491;-79
2022/01/29 08:56:19;;;;;;;5.53;2.33;;;4.70;95.70;;;;;;4897945;29;20055;-83
2022/01/29 08:58:46;;;;;;;4.45;2.35;;;4.80;95.70;;;;;;4873680;29;20080;-79
2022/01/29 09:01:14;;;;;;;5.45;2.70;;;4.80;95.70;;;;;;4899691;29;20088;-80
2022/01/29 09:03:41;;;;;;;5.35;2.30;;;4.80;95.50;;;;;;4883107;29;20053;-80
2022/01/29 09:06:08;;;;;;;6.22;2.58;;;4.80;95.50;;;;;;4883050;29;20144;-81
2022/01/29 09:08:39;;;;;;;5.32;2.60;;;4.80;95.50;;;;;;4883232;29;20049;-78
2022/01/29 09:11:07;;;;;;;7.38;2.95;;;4.90;95.30;;;;;;4886294;29;20056;-86
2022/01/29 09:13:34;;;;;;;6.53;2.85;;;4.90;95.10;;;;;;4896156;29;20090;-81
2022/01/29 09:16:01;;;;;;;5.55;2.63;;;4.90;95.00;;;;;;4899434;29;20131;-85
2022/01/29 09:18:28;;;;;;;7.32;2.85;;;4.90;95.10;;;;;;4903174;29;20056;-81
2022/01/29 09:20:55;;;;;;;5.70;2.95;;;4.90;95.10;;;;;;4901121;29;20050;-81
2022/01/29 09:23:23;;;;;;;6.95;3.08;;;4.90;94.90;;;;;;4902166;29;20480;-82
2022/01/29 09:25:52;;;;;;;5.88;3.00;;;5.00;94.90;;;;;;4902153;29;20558;-81
2022/01/29 09:28:20;;;;;;;7.50;3.65;;;5.00;94.90;;;;;;4901116;29;20112;-83
2022/01/29 09:30:49;;;;;;;6.63;3.40;;;5.00;94.80;;;;;;4887554;29;20068;-79
2022/01/29 09:33:18;;;;;;;7.65;3.58;;;5.00;94.70;;;;;;4897472;29;20513;-79
2022/01/29 09:35:45;;;;;;;7.28;3.28;;;5.10;94.50;;;;;;4892462;29;20049;-81
2022/01/29 09:38:13;;;;;;;8.27;3.83;;;5.10;94.40;;;;;;4899906;29;20144;-82
2022/01/29 09:40:43;;;;;;;6.88;3.47;;;5.10;94.50;;;;;;4900788;29;20543;-80
2022/01/29 09:43:12;;;;;;;5.78;3.28;;;5.10;94.40;;;;;;4900813;29;20141;-81
2022/01/29 09:45:39;;;;;;;7.03;3.72;;;5.10;94.60;;;;;;4898186;29;20055;-81
2022/01/29 09:48:07;;;;;;;7.72;3.97;;;5.10;94.40;;;;;;4898076;29;20060;-80
2022/01/29 09:50:37;;;;;;;6.28;3.58;;;5.20;94.50;;;;;;4887501;29;20128;-79
2022/01/29 09:53:06;;;;;;;8.27;3.83;;;5.10;94.60;;;;;;4889572;29;20131;-80
2022/01/29 09:55:34;;;;;;;8.30;4.07;;;5.20;94.60;;;;;;4895684;29;20409;-80
2022/01/29 09:58:01;;;;;;;7.55;3.78;;;5.20;94.60;;;;;;4899873;29;20131;-80
2022/01/29 10:00:31;;;;;;;6.60;3.55;;;5.10;94.70;;;;;;4898237;29;20060;-79
2022/01/29 10:03:20;;;;;;;7.47;4.00;;;5.10;94.80;;;;;;4889521;29;20060;-81
2022/01/29 10:05:50;;;;;;;7.15;4.00;;;5.10;95.10;;;;;;4904496;29;20067;-78
2022/01/29 10:08:19;;;;;;;7.57;4.03;;;5.10;95.40;;;;;;4892109;29;20064;-79
2022/01/29 10:10:49;;;;;;;7.03;3.92;;;5.10;95.60;;;;;;4896687;29;20063;-80
2022/01/29 10:13:30;;;;;;;8.63;4.22;;;5.10;95.80;;;;;;4899588;29;20109;-82
2022/01/29 10:16:14;;;;;;;7.95;4.13;;;5.10;96.10;;;;;;4892485;29;20091;-80
2022/01/29 10:18:45;;;;;;;7.95;4.43;;;5.20;96.20;;;;;;4893519;29;20100;-79
2022/01/29 10:21:16;;;;;;;6.53;3.75;;;5.20;96.20;;;;;;4890316;29;20047;-81
2022/01/29 10:23:46;;;;;;;8.35;3.88;;;5.20;96.30;;;;;;4895547;29;20202;-79
2022/01/29 10:26:27;;;;;;;8.43;4.65;;;5.30;96.30;;;;;;4897338;29;20136;-79
2022/01/29 10:28:56;;;;;;;6.85;4.18;;;5.30;96.50;;;;;;4897460;29;20044;-81
2022/01/29 10:31:25;;;;;;;8.88;3.90;;;5.40;96.60;;;;;;4897970;29;20059;-81
2022/01/29 10:33:53;;;;;;;7.70;3.95;;;5.40;96.80;;;;;;4898894;29;20049;-80
2022/01/29 10:36:22;;;;;;;7.43;3.70;;;5.40;96.80;;;;;;4898109;29;20131;-78
2022/01/29 10:38:53;;;;;;;9.55;4.05;;;5.50;96.90;;;;;;4894215;29;20096;-93
2022/01/29 10:41:24;;;;;;;7.18;4.20;;;5.50;97.00;;;;;;4896321;29;20056;-84
2022/01/29 10:44:12;;;;;;;9.93;5.15;;;5.50;97.30;;;;;;4884458;29;20053;-87
2022/01/29 10:46:45;;;;;;;7.22;4.30;;;5.50;97.70;;;;;;4896406;29;20459;-91
2022/01/29 10:49:22;;;;;;;7.13;4.20;;;5.50;98.20;;;;;;4900503;29;20139;-91
2022/01/29 10:52:02;;;;;;;7.40;3.90;;;5.50;98.70;;;;;;4894587;29;20124;-78
2022/01/29 10:54:30;;;;;;;6.10;3.50;;;5.50;99.00;;;;;;4885186;29;20471;-79
2022/01/29 10:57:01;;;;;;;6.93;3.67;;;5.50;99.10;;;;;;4890658;29;20128;-81
2022/01/29 10:59:30;;;;;;;6.47;3.50;;;5.60;99.20;;;;;;4892389;29;20051;-80
2022/01/29 11:02:01;;;;;;;7.22;3.78;;;5.50;99.20;;;;;;4883308;29;20144;-79
2022/01/29 11:04:31;;;;;;;7.35;3.47;;;5.70;99.30;;;;;;4895657;29;20459;-82
2022/01/29 11:07:02;;;;;;;7.10;3.50;;;5.80;99.20;;;;;;4900808;29;20061;-82
2022/01/29 11:09:31;;;;;;;6.32;3.50;;;5.90;99.00;;;;;;4908275;29;20067;-84
2022/01/29 11:12:00;;;;;;;6.95;4.00;;;6.00;98.50;;;;;;4912013;29;20076;-78
2022/01/29 11:14:29;;;;;;;6.90;3.25;;;6.10;98.80;;;;;;4902931;29;20095;-81
2022/01/29 11:16:59;;;;;;;5.95;3.38;;;6.10;98.80;;;;;;4899722;29;20063;-84
2022/01/29 11:19:26;;;;;;;7.75;3.58;;;6.20;98.90;;;;;;4903000;29;20509;-85
2022/01/29 11:21:58;;;;;;;6.75;3.65;;;6.30;98.80;;;;;;4898444;29;20091;-88
2022/01/29 11:24:27;;;;;;;6.53;3.20;;;6.40;98.80;;;;;;4881306;29;20053;-81
2022/01/29 11:26:55;;;;;;;5.95;3.08;;;6.40;98.60;;;;;;4881194;29;20140;-81
2022/01/29 11:29:33;;;;;;;6.88;2.90;;;6.50;98.50;;;;;;4887066;29;20105;-81
2022/01/29 11:35:51;;;;;;;4.82;2.65;;;6.50;98.60;;;;;;4894370;29;20052;-81
2022/01/29 11:38:29;;;;;;;5.38;2.88;;;6.50;98.80;;;;;;4886091;29;20044;-83
2022/01/29 11:40:58;;;;;;;5.70;2.75;;;6.50;98.90;;;;;;4905025;29;20392;-83
2022/01/29 11:43:28;;;;;;;4.53;2.40;;;6.50;98.90;;;;;;4917049;29;20134;-86
2022/01/29 11:46:03;;;;;;;5.25;2.33;;;6.50;98.90;;;;;;4897549;29;20044;-83
2022/01/29 11:48:54;;;;;;;5.90;2.50;;;6.60;98.90;;;;;;4900779;29;20052;-80
2022/01/29 11:51:47;;;;;;;4.15;1.90;;;6.60;99.00;;;;;;4890869;29;20082;-82
2022/01/29 11:54:28;;;;;;;5.70;2.42;;;6.60;99.20;;;;;;4898905;29;20040;-84
2022/01/29 11:57:16;;;;;;;4.65;2.22;;;6.70;99.30;;;;;;4879116;29;20041;-81
2022/01/29 11:59:44;;;;;;;3.75;1.67;;;6.70;99.20;;;;;;4884649;29;20124;-85
2022/01/29 12:02:42;;;;;;;4.32;2.22;;;6.70;98.90;;;;;;4891484;29;20088;-79
2022/01/29 12:05:11;;;;;;;3.15;1.48;;;6.80;98.90;;;;;;4872263;29;20128;-79
2022/01/29 12:08:17;;;;;;;3.85;1.40;;;6.80;98.50;;;;;;4889849;29;20067;-81
2022/01/29 12:10:53;;;;;;;4.00;1.63;;;6.80;98.40;;;;;;4882538;29;20087;-79
2022/01/29 12:13:20;;;;;;;3.15;1.35;;;6.80;98.50;;;;;;4885140;29;20063;-82
2022/01/29 12:15:48;;;;;;;3.13;1.40;;;6.90;98.30;;;;;;4886685;29;20049;-80
2022/01/29 12:18:36;;;;;;;4.43;1.40;;;6.90;98.20;;;;;;4886539;29;20128;-79
2022/01/29 12:21:06;;;;;;;4.65;1.95;;;7.00;98.20;;;;;;4883866;29;20444;-80
2022/01/29 12:23:52;;;;;;;3.83;1.40;;;7.00;98.10;;;;;;4886914;29;20048;-82
2022/01/29 12:26:22;;;;;;;2.72;1.27;;;7.00;98.20;;;;;;4895396;29;20084;-79
2022/01/29 12:28:52;;;;;;;3.72;1.50;;;7.00;98.20;;;;;;4899360;29;20120;-79
2022/01/29 12:31:19;;;;;;;4.07;1.70;;;7.10;98.20;;;;;;4887718;29;20111;-84
2022/01/29 12:33:46;;;;;;;4.15;1.50;;;7.20;98.10;;;;;;4883469;29;20099;-82
2022/01/29 12:36:14;;;;;;;4.65;1.90;;;7.20;97.90;;;;;;4901230;29;20112;-82
2022/01/29 12:38:45;;;;;;;3.55;1.50;;;7.20;98.00;;;;;;4904126;29;20519;-81
2022/01/29 12:41:24;;;;;;;3.50;1.48;;;7.30;98.10;;;;;;4896905;29;20048;-83
2022/01/29 12:43:53;;;;;;;3.92;1.90;;;7.30;98.00;;;;;;4890651;29;20060;-81
2022/01/29 12:46:23;;;;;;;4.63;1.60;;;7.30;98.00;;;;;;4881217;29;20057;-79
2022/01/29 12:49:06;;;;;;;3.78;1.92;;;7.30;98.10;;;;;;4878557;29;20132;-80
2022/01/29 12:51:34;;;;;;;3.78;1.30;;;7.30;98.10;;;;;;4878977;29;20059;-81
2022/01/29 12:54:04;;;;;;;3.13;1.33;;;7.30;98.10;;;;;;4890701;29;20157;-80
2022/01/29 12:56:35;;;;;;;2.65;1.23;;;7.30;98.00;;;;;;4899860;29;20126;-78
2022/01/29 12:59:06;;;;;;;3.53;1.55;;;7.30;98.10;;;;;;4882759;29;20153;-80
2022/01/29 13:01:33;;;;;;;3.58;1.45;;;7.40;98.20;;;;;;4880872;29;20062;-80
2022/01/29 13:04:02;;;;;;;4.78;1.70;;;7.40;98.30;;;;;;4889710;29;20481;-81
2022/01/29 13:06:29;;;;;;;4.68;1.80;;;7.40;98.40;;;;;;4900836;29;20447;-80
2022/01/29 13:09:13;;;;;;;3.83;1.70;;;7.50;98.40;;;;;;4903042;29;20487;-77
2022/01/29 13:11:42;;;;;;;3.90;1.60;;;7.60;98.30;;;;;;4890981;29;20060;-80
2022/01/29 13:14:15;;;;;;;3.35;1.33;;;7.60;98.30;;;;;;4891220;29;20053;-79
2022/01/29 13:16:42;;;;;;;10.63;4.95;;;7.60;98.40;;;;;;4899742;29;20048;-79
2022/01/29 13:19:10;;;;;;;5.07;2.15;;;7.60;98.40;;;;;;4899332;29;20057;-80
2022/01/29 13:21:39;;;;;;;3.60;1.42;;;7.60;98.50;;;;;;4883065;29;20077;-79
2022/01/29 13:24:32;;;;;;;3.83;1.60;;;7.60;98.40;;;;;;4889596;29;20052;-80
2022/01/29 13:27:07;;;;;;;2.38;1.10;;;7.60;98.60;;;;;;4883798;29;20057;-81
2022/01/29 13:29:37;;;;;;;3.75;1.40;;;7.60;98.50;;;;;;4880831;29;20049;-83
2022/01/29 13:32:07;;;;;;;2.97;1.20;;;7.60;98.60;;;;;;4881978;29;20090;-76
2022/01/29 13:34:38;;;;;;;3.10;1.30;;;7.60;98.70;;;;;;4883731;29;20055;-81
2022/01/29 13:37:33;;;;;;;2.95;1.35;;;7.60;98.80;;;;;;4895205;29;20052;-78
2022/01/29 13:40:03;;;;;;;4.60;2.08;;;7.60;98.90;;;;;;4881683;29;20132;-78
2022/01/29 13:42:34;;;;;;;3.38;1.33;;;7.60;98.90;;;;;;4882924;29;20049;-79
2022/01/29 13:45:13;;;;;;;3.30;1.10;;;7.60;98.80;;;;;;4895000;29;20376;-80
2022/01/29 13:48:01;;;;;;;2.92;1.10;;;7.60;98.80;;;;;;4899745;29;20052;-79
2022/01/29 13:50:31;;;;;;;2.83;1.10;;;7.50;98.80;;;;;;4899783;29;20475;-78
2022/01/29 13:53:08;;;;;;;3.90;1.23;;;7.50;99.00;;;;;;4900668;29;20053;-81
2022/01/29 13:55:39;;;;;;;3.47;1.30;;;7.40;99.10;;;;;;4898571;29;20099;-86
2022/01/29 13:58:10;;;;;;;3.70;1.33;;;7.40;99.20;;;;;;4893134;29;20089;-90
2022/01/29 14:00:59;;;;;;;2.60;1.27;;;7.40;99.20;;;;;;4888490;29;20108;-84
2022/01/29 14:03:50;;;;;;;2.90;1.00;;;7.40;99.40;;;;;;4885268;29;20049;-78
2022/01/29 14:06:30;;;;;;;3.22;1.30;;;7.40;99.40;;;;;;4891980;29;20044;-81
2022/01/29 14:09:22;;;;;;;3.13;1.20;;;7.40;99.40;;;;;;4899755;29;20049;-81
2022/01/29 14:12:10;;;;;;;3.03;1.20;;;7.40;99.30;;;;;;4897891;29;20104;-79
2022/01/29 14:14:45;;;;;;;3.00;1.20;;;7.40;99.40;;;;;;4880689;29;20095;-78
2022/01/29 14:17:17;;;;;;;3.25;1.15;;;7.30;99.60;;;;;;4897781;29;20529;-78
2022/01/29 14:19:47;;;;;;;3.50;1.38;;;7.30;99.60;;;;;;4899444;29;20103;-81
2022/01/29 14:22:14;;;;;;;3.10;1.35;;;7.30;99.60;;;;;;4899477;29;20131;-80
2022/01/29 14:24:43;;;;;;;3.90;1.70;;;7.20;99.70;;;;;;4883105;29;20163;-82
2022/01/29 14:27:12;;;;;;;3.20;1.58;;;7.20;99.80;;;;;;4896903;29;20076;-81
2022/01/29 14:29:44;;;;;;;3.53;1.50;;;7.20;99.80;;;;;;4899803;29;20052;-80
2022/01/29 14:32:14;;;;;;;3.83;1.65;;;7.20;99.90;;;;;;4898320;29;20144;-78
2022/01/29 14:34:41;;;;;;;3.53;1.58;;;7.20;99.90;;;;;;4883071;29;20060;-80
2022/01/29 14:37:09;;;;;;;4.80;1.98;;;7.20;99.90;;;;;;4883397;29;20057;-80
2022/01/29 14:39:37;;;;;;;3.50;1.60;;;7.10;99.90;;;;;;4880959;29;20531;-80
2022/01/29 14:42:07;;;;;;;3.67;1.70;;;7.10;99.90;;;;;;4881050;29;20053;-81
2022/01/29 14:44:38;;;;;;;5.13;1.60;;;7.10;99.90;;;;;;4881606;29;20110;-79
2022/01/29 14:47:08;;;;;;;4.60;1.98;;;7.10;99.90;;;;;;4880738;29;20492;-82
2022/01/29 14:49:35;;;;;;;4.75;1.60;;;7.10;99.90;;;;;;4880758;29;20063;-81
2022/01/29 14:52:05;;;;;;;4.18;1.83;;;7.00;99.90;;;;;;4885153;29;20079;-83
2022/01/29 14:54:34;;;;;;;4.53;2.08;;;7.00;99.90;;;;;;4899491;29;20052;-79
2022/01/29 14:57:01;;;;;;;4.03;1.75;;;7.00;99.90;;;;;;4897954;29;20045;-81
2022/01/29 14:59:28;;;;;;;3.83;1.75;;;7.00;99.90;;;;;;4898500;29;20570;-81
2022/01/29 15:01:55;;;;;;;4.00;1.60;;;7.00;99.90;;;;;;4888452;29;20484;-81
2022/01/29 15:04:27;;;;;;;3.78;1.70;;;6.90;99.90;;;;;;4899012;29;20095;-81
2022/01/29 15:06:55;;;;;;;4.85;2.00;;;6.90;99.90;;;;;;4888155;29;20099;-82
2022/01/29 15:09:25;;;;;;;4.88;2.65;;;6.90;99.90;;;;;;4892825;29;20057;-83
2022/01/29 15:11:53;;;;;;;5.10;2.50;;;6.90;99.90;;;;;;4871397;29;20517;-81
2022/01/29 15:14:21;;;;;;;4.50;2.20;;;6.90;99.90;;;;;;4891336;29;20047;-80
2022/01/29 15:16:52;;;;;;;4.80;1.90;;;6.80;99.90;;;;;;4889385;29;20053;-87
2022/01/29 15:19:20;;;;;;;3.55;1.58;;;6.80;99.90;;;;;;4881577;29;20401;-83
2022/01/29 15:21:49;;;;;;;3.53;1.60;;;6.80;99.90;;;;;;4892842;29;20467;-87
2022/01/29 15:24:16;;;;;;;3.08;1.30;;;6.80;99.90;;;;;;4885290;29;20143;-82
2022/01/29 15:26:43;;;;;;;2.78;1.25;;;6.80;99.90;;;;;;4883418;29;20053;-81
2022/01/29 15:29:16;;;;;;;4.25;1.33;;;6.80;99.90;;;;;;4895972;29;20060;-81
2022/01/29 15:31:43;;;;;;;3.33;1.40;;;6.80;99.90;;;;;;4881505;29;20463;-82
2022/01/29 15:34:10;;;;;;;3.72;1.50;;;6.80;99.90;;;;;;4881056;29;20061;-87
2022/01/29 15:36:38;;;;;;;2.90;1.30;;;6.90;99.90;;;;;;4898351;29;20087;-86
2022/01/29 15:39:13;;;;;;;2.85;1.30;;;6.80;99.90;;;;;;4901358;29;20056;-82
2022/01/29 15:41:47;;;;;;;4.47;1.83;;;6.80;99.90;;;;;;4896370;29;20056;-86
2022/01/29 15:44:15;;;;;;;3.33;1.30;;;6.80;99.90;;;;;;4897855;29;20064;-80
2022/01/29 15:46:43;;;;;;;3.65;1.30;;;6.80;99.90;;;;;;4875941;29;20094;-80
2022/01/29 15:49:20;;;;;;;3.28;1.52;;;6.80;99.90;;;;;;4900439;29;20470;-86
2022/01/29 15:51:47;;;;;;;4.85;1.50;;;6.80;99.90;;;;;;4899105;29;20144;-83
2022/01/29 15:54:16;;;;;;;3.60;1.50;;;6.70;99.90;;;;;;4882163;29;20137;-79
2022/01/29 15:56:44;;;;;;;3.88;1.40;;;6.70;99.90;;;;;;4899653;24;20507;-85
2022/01/29 15:59:11;;;;;;;3.65;1.40;;;6.70;99.90;;;;;;4862673;29;20531;-82
2022/01/29 16:01:38;;;;;;;4.18;1.83;;;6.70;99.90;;;;;;4864083;29;20077;-83
2022/01/29 16:04:05;;;;;;;3.25;1.30;;;6.70;99.90;;;;;;4876167;29;21608;-89
2022/01/29 16:06:32;;;;;;;3.53;1.65;;;6.70;99.90;;;;;;4872207;29;20137;-87
2022/01/29 16:09:02;;;;;;;2.72;1.20;;;6.70;99.90;;;;;;4871128;29;20072;-87
2022/01/29 16:11:30;;;;;;;3.58;1.20;;;6.70;99.90;;;;;;4865696;29;20118;-85
2022/01/29 16:13:57;;;;;;;5.22;2.97;;;6.70;99.90;;;;;;4876027;29;20456;-85
2022/01/29 16:16:24;;;;;;;7.35;3.47;;;6.70;99.90;;;;;;4861290;29;20060;-85
2022/01/29 16:18:51;;;;;;;3.75;1.48;;;6.70;99.90;;;;;;4868451;29;20048;-81
2022/01/29 16:21:18;;;;;;;3.53;1.40;;;6.70;99.90;;;;;;4866736;29;20119;-82
2022/01/29 16:23:45;;;;;;;2.72;1.10;;;6.70;99.90;;;;;;4873744;29;20128;-78
2022/01/29 16:26:12;;;;;;;2.55;1.17;;;6.70;99.90;;;;;;4875252;29;20132;-78
2022/01/29 16:28:41;;;;;;;3.28;1.20;;;6.70;99.90;;;;;;4863096;29;20110;-80
2022/01/29 16:31:12;;;;;;;2.78;1.27;;;6.70;99.90;;;;;;4864543;29;20140;-81
2022/01/29 16:33:40;;;;;;;3.53;1.50;;;6.70;99.90;;;;;;4880935;29;20057;-80
2022/01/29 16:36:07;;;;;;;3.08;1.30;;;6.70;99.90;;;;;;4871008;29;20132;-80
2022/01/29 16:38:36;;;;;;;3.03;1.30;;;6.70;99.90;;;;;;4882065;29;20083;-82
2022/01/29 16:41:03;;;;;;;2.80;1.20;;;6.70;99.90;;;;;;4871528;29;20137;-82
2022/01/29 16:43:30;;;;;;;2.85;1.20;;;6.70;99.90;;;;;;4862888;29;20144;-81
2022/01/29 16:45:59;;;;;;;3.17;1.38;;;6.70;99.90;;;;;;4863349;29;20140;-82
2022/01/29 16:48:27;;;;;;;3.47;1.40;;;6.70;99.90;;;;;;4863306;29;20114;-80
2022/01/29 16:50:56;;;;;;;3.13;1.52;;;6.70;99.90;;;;;;4871580;29;20124;-81
2022/01/29 16:53:23;;;;;;;3.08;1.25;;;6.70;99.90;;;;;;4875380;29;20049;-81
2022/01/29 16:55:51;;;;;;;3.38;1.30;;;6.70;99.90;;;;;;4880206;29;20583;-79
2022/01/29 16:58:18;;;;;;;2.45;1.05;;;6.70;99.90;;;;;;4880772;29;20074;-81
2022/01/29 17:00:46;;;;;;;2.78;1.10;;;6.80;99.90;;;;;;4865133;29;20102;-83
2022/01/29 17:03:15;;;;;;;2.95;1.20;;;6.80;99.90;;;;;;4874091;29;20156;-81
2022/01/29 17:05:43;;;;;;;2.80;1.15;;;6.80;99.90;;;;;;4879696;29;20135;-79
2022/01/29 17:08:10;;;;;;;3.85;1.50;;;6.70;99.90;;;;;;4883203;29;20087;-80
2022/01/29 17:10:37;;;;;;;2.83;1.13;;;6.80;99.90;;;;;;4883628;29;20091;-80
2022/01/29 17:13:04;;;;;;;3.22;1.05;;;6.80;99.90;;;;;;4881082;29;20581;-79
2022/01/29 17:15:33;;;;;;;2.65;1.10;;;6.80;99.90;;;;;;4882145;29;20076;-79
2022/01/29 17:18:00;;;;;;;3.22;1.40;;;6.80;99.90;;;;;;4881130;29;20132;-78
2022/01/29 17:20:29;;;;;;;7.00;3.47;;;6.80;99.90;;;;;;4882555;29;20140;-80
2022/01/29 17:22:57;;;;;;;3.95;1.20;;;6.80;99.90;;;;;;4872612;29;20132;-78
2022/01/29 17:25:24;;;;;;;2.92;1.20;;;6.80;99.90;;;;;;4887706;29;20059;-78
2022/01/29 17:27:52;;;;;;;2.78;1.10;;;6.80;99.90;;;;;;4880396;29;20147;-79
2022/01/29 17:30:20;;;;;;;3.78;1.17;;;6.80;99.90;;;;;;4880781;29;20131;-79
2022/01/29 17:32:49;;;;;;;3.45;1.20;;;6.80;99.90;;;;;;4880215;29;20140;-78
2022/01/29 17:35:17;;;;;;;2.95;1.20;;;6.80;99.90;;;;;;4862084;29;20053;-78
2022/01/29 17:37:47;;;;;;;3.60;1.30;;;6.80;99.90;;;;;;4869030;29;20063;-80
2022/01/29 17:40:15;;;;;;;3.85;1.40;;;6.80;99.90;;;;;;4880227;29;20064;-79
2022/01/29 17:42:42;;;;;;;2.95;1.25;;;6.80;99.90;;;;;;4880543;29;20440;-79
2022/01/29 17:45:11;;;;;;;3.10;1.30;;;6.80;99.90;;;;;;4877015;29;20124;-79
2022/01/29 17:47:38;;;;;;;3.63;1.30;;;6.80;99.90;;;;;;4879968;29;20508;-79
2022/01/29 17:50:06;;;;;;;2.90;1.20;;;6.80;99.90;;;;;;4870864;29;20056;-78
2022/01/29 17:52:34;;;;;;;2.95;1.23;;;6.80;99.90;;;;;;4875377;29;20402;-79
2022/01/29 17:55:02;;;;;;;2.67;1.10;;;6.70;99.90;;;;;;4878545;29;20504;-80
2022/01/29 17:57:29;;;;;;;3.13;1.20;;;6.70;99.90;;;;;;4879948;29;20143;-78
2022/01/29 17:59:57;;;;;;;2.97;1.30;;;6.70;99.90;;;;;;4868072;29;20136;-78
2022/01/29 18:02:24;;;;;;;3.95;1.30;;;6.70;99.90;;;;;;4867232;29;20590;-79
2022/01/29 18:04:51;;;;;;;2.92;1.23;;;6.70;99.90;;;;;;4875455;29;20049;-82
2022/01/29 18:07:18;;;;;;;2.88;1.30;;;6.70;99.90;;;;;;4872913;29;20056;-79
2022/01/29 18:09:45;;;;;;;3.13;1.35;;;6.70;99.90;;;;;;4880034;29;20470;-79
2022/01/29 18:12:14;;;;;;;3.05;1.27;;;6.70;99.90;;;;;;4872685;29;20091;-80
2022/01/29 18:14:42;;;;;;;2.78;1.15;;;6.70;99.90;;;;;;4879909;29;20107;-78
2022/01/29 18:17:09;;;;;;;19.70;8.90;;;6.70;99.90;;;;;;4878155;29;20045;-78
2022/01/29 18:19:36;;;;;;;3.10;1.30;;;6.70;99.90;;;;;;4879942;29;20087;-81
2022/01/29 18:22:03;;;;;;;2.80;1.10;;;6.70;99.90;;;;;;4879910;29;20048;-79
2022/01/29 18:24:31;;;;;;;3.15;1.20;;;6.70;99.90;;;;;;4876215;29;20059;-80
2022/01/29 18:27:03;;;;;;;2.08;1.00;;;6.70;99.90;;;;;;4862778;29;20151;-78
2022/01/29 18:29:32;;;;;;;3.10;1.33;;;6.70;99.90;;;;;;4864486;29;20397;-79
2022/01/29 18:32:00;;;;;;;3.17;1.40;;;6.70;99.90;;;;;;4877469;29;20419;-79
2022/01/29 18:34:27;;;;;;;2.78;1.25;;;6.70;99.90;;;;;;4874183;29;20072;-80
2022/01/29 18:36:55;;;;;;;3.25;1.25;;;6.70;99.90;;;;;;4862185;29;20045;-79
2022/01/29 18:39:24;;;;;;;3.10;1.20;;;6.70;99.90;;;;;;4865658;29;20045;-78
2022/01/29 18:41:51;;;;;;;2.72;1.15;;;6.70;99.90;;;;;;4870923;29;20088;-80
2022/01/29 18:44:18;;;;;;;3.88;1.40;;;6.70;99.90;;;;;;4864926;29;20045;-79
2022/01/29 18:46:47;;;;;;;3.17;1.20;;;6.80;99.90;;;;;;4866758;29;20049;-78
2022/01/29 18:49:14;;;;;;;5.45;1.63;;;6.70;99.90;;;;;;4860258;29;20136;-77
2022/01/29 18:51:41;;;;;;;3.03;1.20;;;6.70;99.90;;;;;;4861173;29;20514;-78
2022/01/29 18:54:08;;;;;;;2.55;0.98;;;6.70;99.90;;;;;;4861439;29;20091;-81
2022/01/29 18:56:36;;;;;;;3.83;1.40;;;6.70;99.90;;;;;;4861872;29;20049;-80
2022/01/29 18:59:03;;;;;;;2.80;1.30;;;6.70;99.90;;;;;;4874800;29;20084;-78
2022/01/29 19:01:30;;;;;;;3.00;1.20;;;6.70;99.90;;;;;;4879029;29;20075;-80
2022/01/29 19:03:59;;;;;;;2.63;1.10;;;6.70;99.90;;;;;;4870101;29;20136;-77
2022/01/29 19:06:26;;;;;;;2.90;1.17;;;6.70;99.90;;;;;;4861652;29;20132;-79
2022/01/29 19:08:53;;;;;;;3.05;1.65;;;6.70;99.90;;;;;;4860524;29;20137;-77
2022/01/29 19:11:20;;;;;;;2.83;1.20;;;6.70;99.90;;;;;;4869191;29;20136;-78
2022/01/29 19:13:47;;;;;;;2.67;1.17;;;6.70;99.90;;;;;;4875110;29;20059;-79
2022/01/29 19:16:17;;;;;;;2.70;1.20;;;6.70;99.90;;;;;;4877341;29;20048;-81
2022/01/29 19:18:48;;;;;;;3.38;1.20;;;6.70;99.90;;;;;;4878008;29;20132;-80
2022/01/29 19:21:16;;;;;;;2.42;1.20;;;6.70;99.90;;;;;;4879085;29;20053;-78
2022/01/29 19:23:44;;;;;;;3.05;1.33;;;6.70;99.90;;;;;;4864789;29;20136;-79
2022/01/29 19:26:13;;;;;;;2.67;1.13;;;6.70;99.90;;;;;;4877264;29;20414;-79
2022/01/29 19:28:41;;;;;;;2.50;1.10;;;6.70;99.90;;;;;;4879073;29;20132;-79